Texas General Land Office
 Texas General Land Office
 George P. Bush, Commissioner

 Oil Spill Prevention
 & Response

Texas Automated Buoy System
Real Time Ocean Observations
Supporting Oil Spill Prevention and
Response since 1995
Geochemical and Environmental Research Group

TABS Buoy B -- Texas Automated Buoy System

TABS Buoy B Conditions at 11/22/2017 09:00 UTC (11/22/2017 03:00 CST)
28° 58.9386'N   94° 53.9436'W
AA3900 DCS - sensor depth 2m
Anemometer height: 4m
Water Depth: 63 feet (19 meters)
Speed: 35.03 cm/s (0.68 kts) Direction: 258 °T (WSW) Water Temp: 21°C (71 °F)
System Voltage: 12.0 V Signal Strength: 0.0 dB Ping Count: 0
Wind: 7.1 m/s (13.9 kts)
          From 55°T (NE)
Air Temp: 15 °C (59 °F)
Relative Humidity:  0 %
Pressure: 1010.0 mb (29.83 inHg)

  


IMPORTANT: Notice to Mariners


Today's Velocity Data (download)

   Date   |  Time  |   East |   North|   Speed|  Dir | WaterT |
          |  (UTC) |  (cm/s)|  (cm/s)|  (cm/s)| (°T) |  (°C)  |
==========+========+========+========+========+======+========+
11/22/2017 00:00:00   -15.40    -3.30    15.75  257.9   21.4
11/22/2017 00:30:00   -15.60    -5.70    16.61  249.9   21.3
11/22/2017 01:00:00   -11.00    -9.10    14.28  230.4   21.3
11/22/2017 01:30:00   -12.30   -10.80    16.37  228.7   21.3
11/22/2017 02:00:00   -11.50   -10.50    15.57  227.6   21.4
11/22/2017 02:30:00   -15.00   -12.50    19.53  230.2   21.5
11/22/2017 03:00:00   -16.20   -12.00    20.16  233.5   21.4
11/22/2017 03:30:00   -18.70   -11.40    21.90  238.6   21.4
11/22/2017 04:00:00   -21.40   -15.30    26.31  234.4   21.3
11/22/2017 05:00:00   -30.00   -15.80    33.91  242.2   21.3
11/22/2017 05:30:00   -30.30   -13.00    32.97  246.8   21.3
11/22/2017 06:00:00   -28.60   -10.60    30.50  249.7   21.4
11/22/2017 06:30:00   -32.00    -8.30    33.06  255.5   21.4
11/22/2017 07:00:00   -33.80    -6.80    34.48  258.6   21.5
11/22/2017 07:30:00   -31.50   -16.30    35.47  242.6   21.5
11/22/2017 08:00:00   -35.40    -8.40    36.38  256.7   21.5
11/22/2017 08:30:00   -36.50    -4.60    36.79  262.8   21.4
11/22/2017 09:00:00   -34.30    -7.10    35.03  258.3   21.4



       
 

Today's Temperature - Salinity Data     (Download)


   Date   |  Time  |   Temp |   Cond |Salinity| Density|SoundVel|
          |  (UTC) |   (°C) | (ms/cm)|        | kg/m^3 |  (m/s) |
==========+========+========+========+========+========+========+
11/22/2017 00:00:00    21.45    44.83    31.40     0.00     0.00
11/22/2017 00:30:00    21.36    44.61    31.30     0.00     0.00
11/22/2017 01:00:00    21.31    44.82    31.49     0.00     0.00
11/22/2017 01:30:00    21.37    45.18    31.73     0.00     0.00
11/22/2017 02:00:00    21.47    45.74    32.10     0.00     0.00
11/22/2017 02:30:00    21.49    46.07    32.34     0.00     0.00
11/22/2017 03:00:00    21.46    45.93    32.25     0.00     0.00
11/22/2017 03:30:00    21.48    46.10    32.37     0.00     0.00
11/22/2017 04:00:00    21.28    45.57    32.11     0.00     0.00
11/22/2017 05:00:00    21.28    45.84    32.32     0.00     0.00
11/22/2017 05:30:00    21.35    46.03    32.42     0.00     0.00
11/22/2017 06:00:00    21.43    46.32    32.58     0.00     0.00
11/22/2017 06:30:00    21.45    46.56    32.76     0.00     0.00
11/22/2017 07:00:00    21.58    47.06    33.05     0.00     0.00
11/22/2017 07:30:00    21.55    47.03    33.05     0.00     0.00
11/22/2017 08:00:00    21.50    46.92    33.00     0.00     0.00
11/22/2017 08:30:00    21.47    46.91    33.02     0.00     0.00
11/22/2017 09:00:00    21.47    46.91    33.02     0.00     0.00